Time;durP1;ratioP1;P1;durP2;ratioP2;P2;SDS_P1;SDS_P2;PMS_P1;PMS_P2;Temp;Humidity;BMP_temperature;BMP_pressure;BME280_temperature;BME280_humidity;BME280_pressure;Samples;Min_cycle;Max_cycle;Signal;HPM_P1;HPM_P2
2022/08/31 00:04:48;;;;;;;3.83;0.80;;;;;;;;;;4992864;28;20094;-71
2022/08/31 00:07:14;;;;;;;2.60;0.90;;;;;;;;;;4993947;28;20446;-71
2022/08/31 00:09:40;;;;;;;4.85;0.82;;;;;;;;;;4991297;28;20080;-71
2022/08/31 00:12:06;;;;;;;2.63;0.60;;;;;;;;;;4993580;28;20085;-71
2022/08/31 00:14:32;;;;;;;2.92;0.90;;;;;;;;;;4993611;28;20121;-71
2022/08/31 00:16:58;;;;;;;3.17;0.98;;;;;;;;;;4993911;28;20047;-71
2022/08/31 00:19:24;;;;;;;2.50;0.80;;;;;;;;;;4960132;28;20038;-71
2022/08/31 00:21:50;;;;;;;3.47;0.80;;;;;;;;;;4994606;28;20065;-72
2022/08/31 00:24:16;;;;;;;2.92;1.00;;;;;;;;;;4990874;28;20046;-71
2022/08/31 00:26:42;;;;;;;2.85;0.90;;;;;;;;;;4991415;28;20043;-71
2022/08/31 00:29:09;;;;;;;4.57;1.20;;;;;;;;;;4974553;28;20042;-72
2022/08/31 00:31:35;;;;;;;4.38;1.33;;;;;;;;;;4993412;28;20086;-71
2022/08/31 00:34:01;;;;;;;3.22;1.00;;;;;;;;;;4992508;28;20136;-71
2022/08/31 00:36:27;;;;;;;3.22;1.13;;;;;;;;;;4994004;28;20529;-71
2022/08/31 00:38:53;;;;;;;3.90;0.95;;;;;;;;;;4991682;28;20126;-73
2022/08/31 00:41:24;;;;;;;3.08;0.88;;;;;;;;;;4975459;28;20129;-71
2022/08/31 00:43:55;;;;;;;3.83;1.00;;;;;;;;;;4988284;28;20050;-71
2022/08/31 00:46:23;;;;;;;3.50;1.00;;;;;;;;;;4992168;28;20035;-72
2022/08/31 00:48:58;;;;;;;2.80;0.70;;;;;;;;;;4989526;28;20042;-71
2022/08/31 00:51:24;;;;;;;7.03;0.93;;;;;;;;;;4992742;28;20131;-71
2022/08/31 00:53:51;;;;;;;3.40;0.70;;;;;;;;;;4991672;28;20046;-71
2022/08/31 00:56:17;;;;;;;4.03;1.00;;;;;;;;;;4974683;28;20518;-72
2022/08/31 00:58:43;;;;;;;4.05;0.90;;;;;;;;;;4974446;28;20486;-71
2022/08/31 01:01:11;;;;;;;4.13;0.77;;;;;;;;;;4989707;28;20039;-71
2022/08/31 01:03:37;;;;;;;5.38;0.77;;;;;;;;;;4992999;28;20521;-71
2022/08/31 01:06:03;;;;;;;2.38;0.70;;;;;;;;;;4992976;28;20058;-73
2022/08/31 01:08:29;;;;;;;2.30;0.68;;;;;;;;;;4990458;28;20514;-72
2022/08/31 01:10:55;;;;;;;3.00;0.70;;;;;;;;;;4993822;28;20055;-71
2022/08/31 01:13:21;;;;;;;3.10;0.73;;;;;;;;;;4993025;28;20042;-73
2022/08/31 01:15:49;;;;;;;4.47;0.80;;;;;;;;;;4973732;28;20050;-71
2022/08/31 01:18:16;;;;;;;2.35;0.77;;;;;;;;;;4991197;28;20074;-71
2022/08/31 01:20:57;;;;;;;2.33;0.63;;;;;;;;;;4977382;28;20057;-71
2022/08/31 01:23:28;;;;;;;3.42;0.90;;;;;;;;;;4992277;28;20042;-71
2022/08/31 01:25:56;;;;;;;3.65;0.82;;;;;;;;;;4993630;28;20428;-72
2022/08/31 01:28:22;;;;;;;2.40;0.75;;;;;;;;;;4971306;28;20557;-71
2022/08/31 01:30:59;;;;;;;2.45;0.60;;;;;;;;;;4997602;28;20054;-72
2022/08/31 01:33:26;;;;;;;1.05;0.50;;;;;;;;;;4992407;28;20078;-72
2022/08/31 01:35:52;;;;;;;2.60;0.60;;;;;;;;;;4990748;28;20074;-71
2022/08/31 01:38:18;;;;;;;1.70;0.63;;;;;;;;;;4973599;28;20047;-71
2022/08/31 01:41:00;;;;;;;1.98;0.60;;;;;;;;;;4990559;28;20047;-71
2022/08/31 01:43:27;;;;;;;2.65;0.68;;;;;;;;;;4990708;28;20043;-71
2022/08/31 01:45:53;;;;;;;2.22;0.60;;;;;;;;;;4968892;28;20105;-72
2022/08/31 01:48:20;;;;;;;3.40;0.57;;;;;;;;;;4966735;28;20093;-71
2022/08/31 01:50:46;;;;;;;4.47;0.68;;;;;;;;;;4990895;28;20050;-72
2022/08/31 01:53:12;;;;;;;2.97;0.77;;;;;;;;;;4992024;28;20046;-71
2022/08/31 01:55:38;;;;;;;4.95;0.75;;;;;;;;;;4987888;28;20042;-71
2022/08/31 01:58:05;;;;;;;2.75;0.70;;;;;;;;;;4979732;28;20041;-71
2022/08/31 02:00:31;;;;;;;1.90;0.70;;;;;;;;;;4990146;28;20117;-71
2022/08/31 02:02:59;;;;;;;2.45;0.70;;;;;;;;;;4991154;28;20082;-71
2022/08/31 02:05:27;;;;;;;3.35;0.80;;;;;;;;;;4992995;28;20053;-71
2022/08/31 02:07:53;;;;;;;2.20;0.60;;;;;;;;;;4989790;28;20109;-71
2022/08/31 02:10:19;;;;;;;2.30;0.63;;;;;;;;;;4992401;28;20046;-71
2022/08/31 02:12:45;;;;;;;1.88;0.70;;;;;;;;;;4990813;28;20043;-72
2022/08/31 02:15:11;;;;;;;2.05;0.65;;;;;;;;;;4992078;28;20054;-72
2022/08/31 02:17:37;;;;;;;3.63;0.75;;;;;;;;;;4989416;28;20485;-72
2022/08/31 02:20:04;;;;;;;2.88;0.60;;;;;;;;;;4993078;28;20050;-72
2022/08/31 02:22:30;;;;;;;2.67;0.77;;;;;;;;;;4992077;28;20053;-72
2022/08/31 02:24:56;;;;;;;1.73;0.70;;;;;;;;;;4991961;28;20038;-72
2022/08/31 02:27:23;;;;;;;2.58;0.68;;;;;;;;;;4992208;28;20042;-72
2022/08/31 02:29:49;;;;;;;2.53;0.63;;;;;;;;;;4992528;28;20510;-72
2022/08/31 02:32:16;;;;;;;3.03;0.80;;;;;;;;;;4991534;28;20145;-72
2022/08/31 02:34:43;;;;;;;2.72;0.82;;;;;;;;;;4991683;28;20057;-72
2022/08/31 02:37:10;;;;;;;4.20;0.70;;;;;;;;;;4992327;28;20118;-72
2022/08/31 02:39:36;;;;;;;3.85;0.75;;;;;;;;;;4989945;28;20085;-72
2022/08/31 02:42:02;;;;;;;3.53;0.75;;;;;;;;;;4991732;28;20065;-72
2022/08/31 02:44:28;;;;;;;3.25;0.70;;;;;;;;;;4988869;28;20453;-72
2022/08/31 02:46:54;;;;;;;1.75;0.70;;;;;;;;;;4974135;28;20539;-72
2022/08/31 02:49:20;;;;;;;3.25;0.80;;;;;;;;;;4990581;28;20490;-72
2022/08/31 02:51:46;;;;;;;3.28;1.00;;;;;;;;;;4988126;28;20687;-72
2022/08/31 02:54:13;;;;;;;1.98;0.77;;;;;;;;;;4987620;28;20047;-72
2022/08/31 02:56:39;;;;;;;2.85;0.90;;;;;;;;;;4992330;28;20050;-72
2022/08/31 02:59:06;;;;;;;2.58;0.70;;;;;;;;;;4974573;28;20050;-72
2022/08/31 03:01:31;;;;;;;3.28;0.80;;;;;;;;;;4989989;28;20125;-72
2022/08/31 03:03:59;;;;;;;2.00;0.80;;;;;;;;;;4991748;28;20472;-72
2022/08/31 03:06:25;;;;;;;2.03;0.80;;;;;;;;;;4991923;28;20053;-72
2022/08/31 03:08:51;;;;;;;4.53;1.00;;;;;;;;;;4989411;28;20054;-72
2022/08/31 03:11:18;;;;;;;3.50;0.85;;;;;;;;;;4991142;28;20042;-72
2022/08/31 03:13:44;;;;;;;3.17;0.85;;;;;;;;;;4989551;28;20041;-72
2022/08/31 03:16:12;;;;;;;3.47;1.00;;;;;;;;;;4980246;28;20050;-72
2022/08/31 03:18:38;;;;;;;3.10;1.00;;;;;;;;;;4956175;28;20046;-72
2022/08/31 03:21:04;;;;;;;4.82;0.90;;;;;;;;;;4991043;28;20209;-71
2022/08/31 03:23:30;;;;;;;3.35;0.90;;;;;;;;;;4993048;28;20472;-71
2022/08/31 03:25:56;;;;;;;2.25;0.80;;;;;;;;;;4992248;28;20489;-72
2022/08/31 03:28:22;;;;;;;2.63;0.93;;;;;;;;;;4994806;28;20038;-72
2022/08/31 03:30:48;;;;;;;3.20;0.90;;;;;;;;;;4963021;28;20055;-73
2022/08/31 03:33:14;;;;;;;4.68;0.90;;;;;;;;;;4965029;28;20406;-70
2022/08/31 03:35:43;;;;;;;2.17;1.00;;;;;;;;;;4975681;28;20069;-71
2022/08/31 03:38:11;;;;;;;2.58;1.15;;;;;;;;;;4976109;28;20055;-72
2022/08/31 03:40:37;;;;;;;3.70;1.02;;;;;;;;;;4971999;28;20065;-72
2022/08/31 03:43:03;;;;;;;2.60;0.95;;;;;;;;;;4974287;28;20043;-71
2022/08/31 03:45:30;;;;;;;2.80;1.10;;;;;;;;;;4972079;28;20057;-72
2022/08/31 03:47:58;;;;;;;5.15;1.10;;;;;;;;;;4968929;28;20066;-72
2022/08/31 03:50:24;;;;;;;4.28;1.17;;;;;;;;;;4974332;28;20093;-71
2022/08/31 03:52:53;;;;;;;2.95;1.00;;;;;;;;;;4973972;28;20078;-72
2022/08/31 03:55:19;;;;;;;4.18;1.02;;;;;;;;;;4971694;28;20520;-71
2022/08/31 03:57:45;;;;;;;4.15;0.98;;;;;;;;;;4973774;28;20178;-72
2022/08/31 04:00:11;;;;;;;2.83;1.00;;;;;;;;;;4974574;28;20150;-72
2022/08/31 04:02:38;;;;;;;3.10;1.20;;;;;;;;;;4958166;28;20047;-72
2022/08/31 04:05:05;;;;;;;3.92;1.25;;;;;;;;;;4974139;28;20375;-72
2022/08/31 04:07:31;;;;;;;2.90;1.00;;;;;;;;;;4972843;28;20082;-71
2022/08/31 04:09:57;;;;;;;2.47;1.10;;;;;;;;;;4974341;28;20042;-71
2022/08/31 04:12:23;;;;;;;2.33;1.10;;;;;;;;;;4957690;28;20490;-71
2022/08/31 04:14:48;;;;;;;3.13;1.10;;;;;;;;;;4964336;28;20058;-72
2022/08/31 04:17:14;;;;;;;3.05;1.10;;;;;;;;;;4972309;28;20113;-72
2022/08/31 04:19:41;;;;;;;5.70;1.20;;;;;;;;;;4972755;28;20053;-72
2022/08/31 04:22:07;;;;;;;3.08;1.05;;;;;;;;;;4975024;28;20120;-71
2022/08/31 04:24:33;;;;;;;3.63;1.25;;;;;;;;;;4973271;28;20061;-72
2022/08/31 04:26:59;;;;;;;4.15;1.20;;;;;;;;;;4971965;28;20042;-71
2022/08/31 04:29:25;;;;;;;3.13;1.10;;;;;;;;;;4973027;28;20576;-71
2022/08/31 04:31:51;;;;;;;4.97;1.40;;;;;;;;;;4989458;28;20085;-71
2022/08/31 04:34:17;;;;;;;3.85;1.40;;;;;;;;;;4992357;28;20093;-71
2022/08/31 04:36:44;;;;;;;3.78;1.40;;;;;;;;;;4973765;28;20052;-73
2022/08/31 04:39:13;;;;;;;4.32;1.42;;;;;;;;;;4989016;28;20169;-72
2022/08/31 04:41:40;;;;;;;3.63;1.40;;;;;;;;;;4988676;28;20089;-71
2022/08/31 04:44:06;;;;;;;3.63;1.38;;;;;;;;;;4975060;28;20074;-71
2022/08/31 04:46:33;;;;;;;4.22;1.52;;;;;;;;;;4988322;28;20390;-71
2022/08/31 04:48:59;;;;;;;5.65;1.50;;;;;;;;;;4990003;28;20525;-71
2022/08/31 04:51:26;;;;;;;4.00;1.30;;;;;;;;;;4993049;28;20528;-71
2022/08/31 04:53:53;;;;;;;3.10;1.35;;;;;;;;;;4991244;28;20041;-71
2022/08/31 04:56:21;;;;;;;4.82;1.52;;;;;;;;;;4990963;28;20514;-71
2022/08/31 04:58:49;;;;;;;4.40;1.30;;;;;;;;;;4991898;28;20183;-72
2022/08/31 05:01:16;;;;;;;4.70;1.67;;;;;;;;;;4992614;28;20042;-72
2022/08/31 05:03:43;;;;;;;3.72;1.40;;;;;;;;;;4983014;28;20054;-72
2022/08/31 05:06:16;;;;;;;4.15;1.50;;;;;;;;;;4992448;28;20054;-72
2022/08/31 05:08:43;;;;;;;5.53;1.60;;;;;;;;;;4991543;28;20505;-72
2022/08/31 05:11:10;;;;;;;4.30;1.58;;;;;;;;;;4970579;28;20373;-71
2022/08/31 05:13:36;;;;;;;3.53;1.35;;;;;;;;;;4993098;28;20047;-72
2022/08/31 05:16:04;;;;;;;4.68;2.00;;;;;;;;;;4972072;28;20055;-72
2022/08/31 05:18:30;;;;;;;3.75;1.38;;;;;;;;;;4979906;28;20042;-71
2022/08/31 05:20:56;;;;;;;3.80;1.60;;;;;;;;;;4992607;28;20505;-72
2022/08/31 05:23:22;;;;;;;3.72;1.60;;;;;;;;;;4991884;28;20054;-71
2022/08/31 05:25:48;;;;;;;3.55;1.60;;;;;;;;;;4972797;28;20120;-71
2022/08/31 05:28:15;;;;;;;3.47;1.48;;;;;;;;;;4991868;28;20528;-72
2022/08/31 05:30:44;;;;;;;4.03;1.60;;;;;;;;;;4991474;28;20054;-71
2022/08/31 05:33:10;;;;;;;3.22;1.50;;;;;;;;;;4991757;28;20050;-71
2022/08/31 05:35:36;;;;;;;4.22;1.58;;;;;;;;;;4991237;28;20417;-71
2022/08/31 05:38:02;;;;;;;3.10;1.48;;;;;;;;;;4992215;28;20042;-71
2022/08/31 05:40:28;;;;;;;4.43;1.67;;;;;;;;;;4973831;28;20042;-72
2022/08/31 05:42:58;;;;;;;3.00;1.20;;;;;;;;;;4972798;28;20058;-72
2022/08/31 05:45:24;;;;;;;3.30;1.40;;;;;;;;;;4990836;28;20066;-72
2022/08/31 05:47:50;;;;;;;3.75;1.40;;;;;;;;;;4987594;28;20042;-71
2022/08/31 05:50:17;;;;;;;3.85;1.30;;;;;;;;;;4990978;28;20413;-72
2022/08/31 05:52:43;;;;;;;3.97;1.40;;;;;;;;;;4973915;28;20081;-72
2022/08/31 05:55:10;;;;;;;4.00;1.60;;;;;;;;;;4990680;28;20120;-72
2022/08/31 05:57:39;;;;;;;4.05;1.38;;;;;;;;;;4991127;28;20050;-72
2022/08/31 06:00:06;;;;;;;2.75;1.10;;;;;;;;;;4988594;28;20446;-72
2022/08/31 06:02:32;;;;;;;3.95;1.40;;;;;;;;;;4988818;28;20046;-71
2022/08/31 06:04:59;;;;;;;3.03;1.30;;;;;;;;;;4990140;28;20417;-71
2022/08/31 06:07:25;;;;;;;3.78;1.30;;;;;;;;;;4973211;28;20490;-71
2022/08/31 06:09:51;;;;;;;4.45;1.27;;;;;;;;;;4991868;28;20101;-72
2022/08/31 06:12:18;;;;;;;5.93;1.30;;;;;;;;;;4992250;28;20077;-71
2022/08/31 06:14:44;;;;;;;8.10;1.58;;;;;;;;;;4990166;28;20078;-72
2022/08/31 06:17:11;;;;;;;4.20;1.30;;;;;;;;;;4989739;28;20401;-72
2022/08/31 06:19:38;;;;;;;3.38;1.20;;;;;;;;;;4973063;28;20521;-72
2022/08/31 06:22:04;;;;;;;3.88;1.30;;;;;;;;;;4973149;28;20051;-73
2022/08/31 06:24:30;;;;;;;3.95;1.40;;;;;;;;;;4992081;28;20070;-73
2022/08/31 06:26:58;;;;;;;3.80;1.40;;;;;;;;;;4977501;28;20081;-71
2022/08/31 06:29:24;;;;;;;4.68;1.42;;;;;;;;;;4991058;28;20062;-71
2022/08/31 06:31:50;;;;;;;6.15;1.42;;;;;;;;;;4988975;28;20398;-71
2022/08/31 06:34:18;;;;;;;4.68;1.13;;;;;;;;;;4991662;28;20056;-72
2022/08/31 06:36:44;;;;;;;3.55;1.30;;;;;;;;;;4986438;28;20038;-70
2022/08/31 06:39:11;;;;;;;4.32;1.42;;;;;;;;;;4986730;28;20150;-70
2022/08/31 06:41:38;;;;;;;7.28;1.23;;;;;;;;;;4987697;28;20046;-70
2022/08/31 06:44:06;;;;;;;2.95;1.20;;;;;;;;;;4992298;28;20046;-70
2022/08/31 06:46:33;;;;;;;3.67;1.20;;;;;;;;;;4992266;28;20121;-71
2022/08/31 06:48:59;;;;;;;5.22;1.23;;;;;;;;;;4992424;28;20130;-69
2022/08/31 06:51:25;;;;;;;3.30;1.20;;;;;;;;;;4991557;28;20486;-70
2022/08/31 06:53:52;;;;;;;4.07;1.30;;;;;;;;;;5011452;28;20445;-70
2022/08/31 06:56:20;;;;;;;4.50;1.35;;;;;;;;;;5001110;28;20101;-71
2022/08/31 06:58:46;;;;;;;4.57;1.40;;;;;;;;;;4974977;28;20058;-70
2022/08/31 07:01:17;;;;;;;4.68;1.40;;;;;;;;;;4975397;28;20628;-69
2022/08/31 07:03:44;;;;;;;3.65;1.13;;;;;;;;;;4993395;28;20409;-70
2022/08/31 07:06:11;;;;;;;3.60;1.20;;;;;;;;;;4993838;28;20047;-71
2022/08/31 07:08:38;;;;;;;3.88;1.48;;;;;;;;;;4995956;28;20089;-70
2022/08/31 07:11:10;;;;;;;3.97;1.17;;;;;;;;;;5013015;28;20042;-71
2022/08/31 07:13:36;;;;;;;3.78;1.10;;;;;;;;;;4978305;28;20420;-70
2022/08/31 07:16:06;;;;;;;2.50;1.00;;;;;;;;;;4994073;28;20050;-70
2022/08/31 07:18:32;;;;;;;4.77;1.27;;;;;;;;;;4995184;28;20039;-70
2022/08/31 07:21:12;;;;;;;3.88;1.00;;;;;;;;;;4978092;28;20050;-73
2022/08/31 07:23:38;;;;;;;3.80;1.13;;;;;;;;;;4994895;28;20050;-70
2022/08/31 07:26:06;;;;;;;3.50;1.20;;;;;;;;;;4999308;28;20077;-69
2022/08/31 07:28:32;;;;;;;3.15;0.98;;;;;;;;;;4995286;28;20050;-70
2022/08/31 07:31:01;;;;;;;4.35;0.90;;;;;;;;;;4992394;28;20181;-69
2022/08/31 07:33:27;;;;;;;4.95;1.20;;;;;;;;;;4993273;28;20049;-70
2022/08/31 07:35:53;;;;;;;2.78;0.80;;;;;;;;;;4993964;28;20042;-69
2022/08/31 07:43:58;;;;;;;3.83;0.90;;;;;;;;;;4994755;28;20050;-70
2022/08/31 07:46:28;;;;;;;3.72;1.00;;;;;;;;;;4993913;28;20523;-70
2022/08/31 07:48:55;;;;;;;3.15;1.00;;;;;;;;;;4993441;28;20145;-71
2022/08/31 07:51:22;;;;;;;3.55;0.80;;;;;;;;;;4993042;28;20052;-70
2022/08/31 07:53:48;;;;;;;3.38;0.98;;;;;;;;;;4993450;28;20046;-71
2022/08/31 07:56:16;;;;;;;3.90;1.10;;;;;;;;;;4988194;28;20084;-69
2022/08/31 07:58:42;;;;;;;4.03;0.90;;;;;;;;;;4974568;28;20489;-70
2022/08/31 08:01:08;;;;;;;2.53;0.77;;;;;;;;;;4992437;28;20575;-69
2022/08/31 08:03:34;;;;;;;2.85;1.00;;;;;;;;;;4993867;28;20405;-68
2022/08/31 08:06:00;;;;;;;4.63;1.00;;;;;;;;;;4993465;28;20501;-67
2022/08/31 08:08:26;;;;;;;3.35;1.00;;;;;;;;;;4976102;28;20156;-67
2022/08/31 08:10:52;;;;;;;3.85;0.90;;;;;;;;;;4993529;28;20046;-68
2022/08/31 08:13:18;;;;;;;3.28;0.80;;;;;;;;;;4993556;28;20038;-71
2022/08/31 08:15:45;;;;;;;3.30;0.80;;;;;;;;;;4991844;28;20049;-67
2022/08/31 08:18:12;;;;;;;7.20;1.10;;;;;;;;;;4992870;28;20046;-67
2022/08/31 08:20:38;;;;;;;4.65;0.90;;;;;;;;;;4995592;28;20099;-68
2022/08/31 08:23:11;;;;;;;4.25;1.13;;;;;;;;;;4993991;28;20121;-72
2022/08/31 08:25:38;;;;;;;4.85;0.80;;;;;;;;;;4989678;28;20047;-72
2022/08/31 08:28:04;;;;;;;3.10;0.70;;;;;;;;;;4980364;28;20548;-71
2022/08/31 08:30:30;;;;;;;3.40;1.05;;;;;;;;;;4976222;28;20093;-71
2022/08/31 08:33:00;;;;;;;3.83;0.80;;;;;;;;;;4975613;28;20057;-70
2022/08/31 08:35:31;;;;;;;3.95;0.77;;;;;;;;;;4994595;28;20080;-71
2022/08/31 08:37:57;;;;;;;2.35;0.70;;;;;;;;;;4994360;28;20058;-70
2022/08/31 08:40:28;;;;;;;2.80;0.80;;;;;;;;;;4993129;28;20323;-71
2022/08/31 08:42:54;;;;;;;3.25;0.80;;;;;;;;;;4994136;28;20133;-71
2022/08/31 08:45:21;;;;;;;1.85;0.80;;;;;;;;;;4992911;28;20054;-71
2022/08/31 08:47:48;;;;;;;6.15;0.90;;;;;;;;;;4994198;28;20045;-71
2022/08/31 08:50:17;;;;;;;5.47;1.55;;;;;;;;;;4993987;28;20049;-71
2022/08/31 08:52:45;;;;;;;3.65;1.20;;;;;;;;;;4994050;28;20173;-71
2022/08/31 08:55:18;;;;;;;5.55;1.20;;;;;;;;;;4975799;28;20058;-71
2022/08/31 08:57:45;;;;;;;3.53;1.00;;;;;;;;;;4994018;28;20057;-71
2022/08/31 09:00:13;;;;;;;5.40;1.15;;;;;;;;;;4993523;28;20048;-71
2022/08/31 09:02:42;;;;;;;7.57;1.00;;;;;;;;;;4976187;28;20046;-70
2022/08/31 09:05:09;;;;;;;7.88;1.02;;;;;;;;;;4993654;28;20145;-71
2022/08/31 09:07:49;;;;;;;3.55;1.00;;;;;;;;;;4992457;28;20061;-70
2022/08/31 09:10:27;;;;;;;4.93;1.02;;;;;;;;;;4976137;28;20059;-71
2022/08/31 09:12:56;;;;;;;3.17;0.95;;;;;;;;;;4974247;28;20047;-71
2022/08/31 09:15:34;;;;;;;4.15;0.93;;;;;;;;;;4973941;28;20122;-71
2022/08/31 09:18:17;;;;;;;2.97;0.65;;;;;;;;;;4964690;28;20160;-70
2022/08/31 09:20:43;;;;;;;3.42;0.80;;;;;;;;;;4973778;28;20054;-70
2022/08/31 09:23:09;;;;;;;4.18;0.90;;;;;;;;;;4974033;28;20042;-71
2022/08/31 09:25:52;;;;;;;4.78;0.90;;;;;;;;;;4974012;28;20090;-72
2022/08/31 09:28:35;;;;;;;3.65;0.73;;;;;;;;;;4973962;28;20047;-71
2022/08/31 09:31:02;;;;;;;7.05;0.90;;;;;;;;;;4984812;28;20065;-71
2022/08/31 09:33:29;;;;;;;2.90;0.88;;;;;;;;;;4992127;28;20145;-70
2022/08/31 09:36:16;;;;;;;5.72;0.90;;;;;;;;;;4993135;28;20053;-69
2022/08/31 09:38:44;;;;;;;3.17;0.80;;;;;;;;;;4993120;28;20042;-70
2022/08/31 09:41:22;;;;;;;3.55;0.73;;;;;;;;;;4992920;28;20042;-70
2022/08/31 09:43:48;;;;;;;4.00;0.70;;;;;;;;;;4992895;28;20046;-69
2022/08/31 09:46:28;;;;;;;3.60;0.73;;;;;;;;;;4991785;28;20047;-69
2022/08/31 09:48:57;;;;;;;2.30;0.73;;;;;;;;;;4993130;28;20042;-71
2022/08/31 09:51:36;;;;;;;11.00;1.48;;;;;;;;;;4992806;28;20047;-70
2022/08/31 09:56:54;;;;;;;2.65;0.88;;;;;;;;;;4991681;28;20050;-70
2022/08/31 09:59:39;;;;;;;3.55;0.93;;;;;;;;;;4991913;28;20054;-69
2022/08/31 10:02:06;;;;;;;3.28;0.93;;;;;;;;;;4992594;28;20050;-70
2022/08/31 10:04:36;;;;;;;3.72;0.60;;;;;;;;;;4992446;28;20042;-70
2022/08/31 10:07:05;;;;;;;5.00;0.80;;;;;;;;;;4959142;28;20100;-70
2022/08/31 10:09:36;;;;;;;4.85;1.00;;;;;;;;;;4992631;28;20497;-70
2022/08/31 10:12:05;;;;;;;2.60;0.70;;;;;;;;;;4992648;28;20061;-70
2022/08/31 10:14:43;;;;;;;5.53;0.75;;;;;;;;;;4991992;28;20309;-70
2022/08/31 10:17:14;;;;;;;4.82;0.73;;;;;;;;;;4974669;28;20046;-70
2022/08/31 10:20:04;;;;;;;4.30;0.70;;;;;;;;;;4991361;28;20058;-70
2022/08/31 10:22:47;;;;;;;2.67;0.80;;;;;;;;;;4990723;28;20058;-70
2022/08/31 10:25:29;;;;;;;3.53;0.75;;;;;;;;;;4987753;28;20560;-70
2022/08/31 10:28:13;;;;;;;4.75;0.93;;;;;;;;;;4974063;28;20095;-70
2022/08/31 10:30:46;;;;;;;4.40;0.77;;;;;;;;;;4993514;28;20061;-69
2022/08/31 10:33:24;;;;;;;3.60;0.65;;;;;;;;;;4995035;28;20083;-71
2022/08/31 10:35:56;;;;;;;2.28;0.70;;;;;;;;;;4994490;28;20050;-70
2022/08/31 10:38:42;;;;;;;4.25;0.73;;;;;;;;;;4996590;28;20122;-70
2022/08/31 10:41:13;;;;;;;1.92;0.60;;;;;;;;;;4996407;28;20046;-69
2022/08/31 10:43:40;;;;;;;;;;;;;;;;;;4996831;28;20126;-70
2022/08/31 10:46:07;;;;;;;8.38;0.75;;;;;;;;;;4978845;28;19996;-71
2022/08/31 10:48:35;;;;;;;2.72;0.73;;;;;;;;;;4995212;28;20493;-70
2022/08/31 10:51:19;;;;;;;3.03;0.70;;;;;;;;;;4996285;28;20050;-70
2022/08/31 10:53:51;;;;;;;5.95;0.90;;;;;;;;;;4996175;28;20046;-70
2022/08/31 10:56:20;;;;;;;3.22;0.60;;;;;;;;;;4978725;28;20409;-71
2022/08/31 10:58:52;;;;;;;2.05;0.70;;;;;;;;;;4995975;28;20493;-70
2022/08/31 11:01:21;;;;;;;5.55;0.70;;;;;;;;;;4995438;28;20413;-70
2022/08/31 11:03:56;;;;;;;3.78;0.60;;;;;;;;;;4992829;28;20042;-71
2022/08/31 11:06:25;;;;;;;1.63;0.60;;;;;;;;;;4976606;28;20043;-70
2022/08/31 11:08:56;;;;;;;3.08;0.70;;;;;;;;;;4976431;28;20102;-70
2022/08/31 11:11:23;;;;;;;4.70;1.00;;;;;;;;;;4959441;28;20506;-69
2022/08/31 11:13:53;;;;;;;3.83;0.80;;;;;;;;;;4976268;28;20391;-70
2022/08/31 11:16:33;;;;;;;5.13;0.73;;;;;;;;;;4976355;28;20051;-70
2022/08/31 11:19:25;;;;;;;4.38;0.70;;;;;;;;;;4990931;28;20050;-70
2022/08/31 11:22:10;;;;;;;3.83;0.80;;;;;;;;;;4995431;28;20046;-70
2022/08/31 11:24:54;;;;;;;2.15;0.70;;;;;;;;;;4995653;28;20050;-70
2022/08/31 11:27:25;;;;;;;2.83;0.70;;;;;;;;;;4994092;28;20050;-69
2022/08/31 11:30:01;;;;;;;2.95;0.70;;;;;;;;;;4977889;28;20118;-70
2022/08/31 11:32:49;;;;;;;3.80;0.80;;;;;;;;;;4994636;28;20057;-70
2022/08/31 11:35:36;;;;;;;5.43;0.70;;;;;;;;;;4976179;28;20098;-69
2022/08/31 11:38:02;;;;;;;3.90;0.75;;;;;;;;;;4975831;28;20494;-70
2022/08/31 11:40:40;;;;;;;4.78;0.60;;;;;;;;;;4958444;28;20047;-70
2022/08/31 11:43:13;;;;;;;1.60;0.55;;;;;;;;;;4957960;28;20050;-70
2022/08/31 11:45:39;;;;;;;2.05;0.57;;;;;;;;;;4975894;28;20049;-69
2022/08/31 11:48:10;;;;;;;2.53;0.70;;;;;;;;;;4975937;28;20094;-70
2022/08/31 11:50:36;;;;;;;3.47;0.70;;;;;;;;;;4975499;28;20553;-70
2022/08/31 11:53:23;;;;;;;2.72;0.70;;;;;;;;;;4975659;28;20074;-71
2022/08/31 11:55:51;;;;;;;3.55;0.80;;;;;;;;;;4975737;28;20070;-71
2022/08/31 11:58:24;;;;;;;2.47;0.63;;;;;;;;;;4983324;28;20053;-70
2022/08/31 12:00:56;;;;;;;3.10;0.70;;;;;;;;;;4994496;28;20054;-70
2022/08/31 12:03:31;;;;;;;3.60;0.70;;;;;;;;;;4978358;28;20051;-71
2022/08/31 12:05:57;;;;;;;2.40;0.75;;;;;;;;;;4988174;28;20042;-71
2022/08/31 12:08:31;;;;;;;4.82;0.70;;;;;;;;;;4994973;28;20421;-71
2022/08/31 12:11:20;;;;;;;3.60;0.70;;;;;;;;;;4994809;28;20042;-71
2022/08/31 12:13:54;;;;;;;4.78;0.73;;;;;;;;;;4994769;28;20058;-71
2022/08/31 12:16:37;;;;;;;3.58;0.63;;;;;;;;;;4994003;28;20054;-71
2022/08/31 12:24:57;;;;;;;2.75;0.77;;;;;;;;;;4994527;28;20046;-71
2022/08/31 12:27:34;;;;;;;2.78;0.70;;;;;;;;;;4994045;28;20042;-71
2022/08/31 12:30:16;;;;;;;3.53;0.60;;;;;;;;;;4993358;28;20413;-71
2022/08/31 12:32:44;;;;;;;3.35;0.77;;;;;;;;;;4994223;28;20069;-71
2022/08/31 12:35:16;;;;;;;2.88;0.75;;;;;;;;;;4994386;28;20078;-70
2022/08/31 12:37:42;;;;;;;2.58;0.70;;;;;;;;;;4994372;28;20061;-71
2022/08/31 12:40:14;;;;;;;3.22;0.82;;;;;;;;;;4994224;28;20465;-71
2022/08/31 12:42:45;;;;;;;3.25;0.73;;;;;;;;;;4993960;28;20089;-70
2022/08/31 12:45:12;;;;;;;4.00;0.77;;;;;;;;;;4993645;28;20081;-71
2022/08/31 12:47:46;;;;;;;2.88;0.73;;;;;;;;;;4976477;28;20069;-71
2022/08/31 12:50:27;;;;;;;4.72;1.05;;;;;;;;;;4993179;28;20054;-71
2022/08/31 12:52:59;;;;;;;2.22;0.80;;;;;;;;;;4992655;28;20050;-71
2022/08/31 12:55:33;;;;;;;5.75;0.77;;;;;;;;;;4975722;28;20046;-71
2022/08/31 12:58:12;;;;;;;5.70;0.95;;;;;;;;;;4993892;28;20042;-71
2022/08/31 13:00:38;;;;;;;3.80;0.70;;;;;;;;;;4993851;28;20047;-71
2022/08/31 13:03:22;;;;;;;4.60;0.77;;;;;;;;;;4993504;28;20489;-71
2022/08/31 13:06:07;;;;;;;3.28;0.70;;;;;;;;;;4993468;28;20050;-71
2022/08/31 13:08:41;;;;;;;3.80;0.80;;;;;;;;;;4976376;28;20038;-71
2022/08/31 13:11:26;;;;;;;2.40;0.80;;;;;;;;;;4993746;28;20424;-71
2022/08/31 13:13:54;;;;;;;2.53;0.70;;;;;;;;;;4992954;28;20122;-71
2022/08/31 13:16:20;;;;;;;2.40;0.60;;;;;;;;;;4993488;28;20448;-71
2022/08/31 13:18:46;;;;;;;3.60;0.90;;;;;;;;;;4993613;28;20080;-71
2022/08/31 13:21:19;;;;;;;5.18;1.13;;;;;;;;;;4992233;28;20054;-71
2022/08/31 13:23:47;;;;;;;1.98;0.57;;;;;;;;;;4992642;28;20077;-71
2022/08/31 13:26:21;;;;;;;3.53;0.80;;;;;;;;;;4993416;28;20129;-71
2022/08/31 13:28:51;;;;;;;1.52;0.60;;;;;;;;;;4989024;28;20051;-72
2022/08/31 13:31:25;;;;;;;2.80;0.70;;;;;;;;;;4973858;28;20090;-72
2022/08/31 13:33:55;;;;;;;5.30;0.80;;;;;;;;;;4973758;28;20101;-71
2022/08/31 13:36:33;;;;;;;3.25;0.77;;;;;;;;;;4956530;28;20054;-71
2022/08/31 13:39:04;;;;;;;2.00;0.70;;;;;;;;;;4973774;28;20058;-71
2022/08/31 13:41:30;;;;;;;;;;;;;;;;;;4958195;28;20117;-71
2022/08/31 13:44:00;;;;;;;2.67;0.70;;;;;;;;;;4993139;28;20363;-71
2022/08/31 13:46:33;;;;;;;1.75;0.70;;;;;;;;;;4993260;28;20050;-71
2022/08/31 13:49:03;;;;;;;2.97;0.70;;;;;;;;;;4992871;28;20517;-71
2022/08/31 13:51:32;;;;;;;3.13;0.80;;;;;;;;;;4991883;28;20038;-71
2022/08/31 13:54:04;;;;;;;2.03;0.68;;;;;;;;;;4990674;28;20065;-69
2022/08/31 13:59:22;;;;;;;1.98;0.75;;;;;;;;;;4992677;28;20154;-71
2022/08/31 14:02:28;;;;;;;2.00;0.80;;;;;;;;;;4991501;28;20045;-76
2022/08/31 14:07:25;;;;;;;2.00;0.70;;;;;;;;;;4991887;28;20121;-73
2022/08/31 14:10:10;;;;;;;2.72;0.70;;;;;;;;;;4989174;28;20046;-73
2022/08/31 14:12:44;;;;;;;2.20;0.70;;;;;;;;;;4962240;28;20050;-73
2022/08/31 14:15:32;;;;;;;3.30;0.73;;;;;;;;;;4987984;28;20100;-73
2022/08/31 14:17:59;;;;;;;2.65;0.80;;;;;;;;;;4989899;28;20046;-73
2022/08/31 14:20:32;;;;;;;3.60;0.77;;;;;;;;;;4990914;28;20122;-73
2022/08/31 14:23:17;;;;;;;4.80;0.60;;;;;;;;;;4958964;28;20487;-73
2022/08/31 14:25:43;;;;;;;1.67;0.52;;;;;;;;;;4989673;28;20401;-73
2022/08/31 14:28:09;;;;;;;1.48;0.63;;;;;;;;;;4992414;28;20163;-73
2022/08/31 14:30:35;;;;;;;3.53;0.70;;;;;;;;;;4991495;28;20137;-73
2022/08/31 14:33:01;;;;;;;3.75;0.70;;;;;;;;;;4992428;28;20074;-73
2022/08/31 14:35:27;;;;;;;2.33;0.60;;;;;;;;;;4973243;28;20042;-71
2022/08/31 14:37:53;;;;;;;9.30;0.88;;;;;;;;;;4992296;28;20108;-72
2022/08/31 14:40:19;;;;;;;3.47;0.65;;;;;;;;;;4990139;28;20057;-73
2022/08/31 14:42:46;;;;;;;3.33;0.70;;;;;;;;;;4991603;28;20051;-73
2022/08/31 14:45:20;;;;;;;4.75;0.80;;;;;;;;;;4982153;28;20550;-73
2022/08/31 14:47:49;;;;;;;4.63;0.90;;;;;;;;;;4977239;28;20141;-73
2022/08/31 14:50:18;;;;;;;2.45;0.80;;;;;;;;;;4991795;28;20050;-73
2022/08/31 14:52:51;;;;;;;2.00;0.73;;;;;;;;;;4992315;28;20089;-73
2022/08/31 14:55:18;;;;;;;2.70;0.70;;;;;;;;;;4992076;28;20062;-72
2022/08/31 14:57:45;;;;;;;6.30;0.70;;;;;;;;;;4984496;28;20410;-72
2022/08/31 15:00:11;;;;;;;2.97;0.70;;;;;;;;;;4990731;28;20187;-72
2022/08/31 15:02:37;;;;;;;6.25;0.90;;;;;;;;;;4990371;28;20081;-72
2022/08/31 15:05:06;;;;;;;2.65;0.60;;;;;;;;;;4973706;28;20073;-72
2022/08/31 15:07:37;;;;;;;4.03;0.60;;;;;;;;;;4991170;28;20058;-72
2022/08/31 15:10:05;;;;;;;3.17;0.70;;;;;;;;;;4990058;28;20058;-73
2022/08/31 15:12:32;;;;;;;3.95;0.68;;;;;;;;;;4992052;28;20043;-72
2022/08/31 15:14:58;;;;;;;3.65;0.68;;;;;;;;;;4955912;28;20047;-72
2022/08/31 15:17:28;;;;;;;3.95;0.70;;;;;;;;;;4974282;28;20047;-71
2022/08/31 15:19:54;;;;;;;5.10;0.80;;;;;;;;;;4988268;28;20417;-72